sensor_id;sensor_type;location;lat;lon;timestamp;P1;durP1;ratioP1;P2;durP2;ratioP2
4555;SDS011;2290;48.674;9.018;2023-11-18T00:00:25;3.00;;;2.23;;
4555;SDS011;2290;48.674;9.018;2023-11-18T00:02:51;4.53;;;2.30;;
4555;SDS011;2290;48.674;9.018;2023-11-18T00:05:17;2.57;;;2.23;;
4555;SDS011;2290;48.674;9.018;2023-11-18T00:07:46;2.33;;;1.93;;
4555;SDS011;2290;48.674;9.018;2023-11-18T00:10:12;3.30;;;2.37;;
4555;SDS011;2290;48.674;9.018;2023-11-18T00:12:38;2.53;;;1.93;;
4555;SDS011;2290;48.674;9.018;2023-11-18T00:15:07;2.67;;;2.17;;
4555;SDS011;2290;48.674;9.018;2023-11-18T00:17:37;3.30;;;2.70;;
4555;SDS011;2290;48.674;9.018;2023-11-18T00:20:03;2.10;;;1.77;;
4555;SDS011;2290;48.674;9.018;2023-11-18T00:22:40;2.60;;;2.37;;
4555;SDS011;2290;48.674;9.018;2023-11-18T00:25:07;2.13;;;1.93;;
4555;SDS011;2290;48.674;9.018;2023-11-18T00:27:37;2.90;;;2.10;;
4555;SDS011;2290;48.674;9.018;2023-11-18T00:30:06;2.30;;;2.10;;
4555;SDS011;2290;48.674;9.018;2023-11-18T00:32:39;2.90;;;2.20;;
4555;SDS011;2290;48.674;9.018;2023-11-18T00:35:06;2.87;;;2.30;;
4555;SDS011;2290;48.674;9.018;2023-11-18T00:37:35;2.23;;;1.80;;
4555;SDS011;2290;48.674;9.018;2023-11-18T00:40:00;2.83;;;2.30;;
4555;SDS011;2290;48.674;9.018;2023-11-18T00:42:28;2.93;;;2.30;;
4555;SDS011;2290;48.674;9.018;2023-11-18T00:44:54;2.20;;;2.00;;
4555;SDS011;2290;48.674;9.018;2023-11-18T00:47:20;3.57;;;2.17;;
4555;SDS011;2290;48.674;9.018;2023-11-18T00:49:48;1.90;;;1.70;;
4555;SDS011;2290;48.674;9.018;2023-11-18T00:52:17;2.20;;;1.60;;
4555;SDS011;2290;48.674;9.018;2023-11-18T00:54:43;2.30;;;2.10;;
4555;SDS011;2290;48.674;9.018;2023-11-18T00:57:10;2.13;;;1.70;;
4555;SDS011;2290;48.674;9.018;2023-11-18T00:59:36;1.90;;;1.70;;
4555;SDS011;2290;48.674;9.018;2023-11-18T01:02:06;3.47;;;2.00;;
4555;SDS011;2290;48.674;9.018;2023-11-18T01:04:33;2.33;;;1.70;;
4555;SDS011;2290;48.674;9.018;2023-11-18T01:07:01;3.00;;;2.13;;
4555;SDS011;2290;48.674;9.018;2023-11-18T01:09:27;2.67;;;1.97;;
4555;SDS011;2290;48.674;9.018;2023-11-18T01:11:54;2.20;;;1.97;;
4555;SDS011;2290;48.674;9.018;2023-11-18T01:14:20;2.47;;;1.67;;
4555;SDS011;2290;48.674;9.018;2023-11-18T01:16:48;1.90;;;1.63;;
4555;SDS011;2290;48.674;9.018;2023-11-18T01:19:13;1.70;;;1.60;;
4555;SDS011;2290;48.674;9.018;2023-11-18T01:21:40;2.73;;;1.80;;
4555;SDS011;2290;48.674;9.018;2023-11-18T01:24:08;3.00;;;1.97;;
4555;SDS011;2290;48.674;9.018;2023-11-18T01:26:35;3.80;;;2.13;;
4555;SDS011;2290;48.674;9.018;2023-11-18T01:29:03;2.63;;;2.20;;
4555;SDS011;2290;48.674;9.018;2023-11-18T01:31:30;2.40;;;2.13;;
4555;SDS011;2290;48.674;9.018;2023-11-18T01:33:57;2.10;;;1.90;;
4555;SDS011;2290;48.674;9.018;2023-11-18T01:36:25;2.03;;;1.87;;
4555;SDS011;2290;48.674;9.018;2023-11-18T01:38:50;2.93;;;1.60;;
4555;SDS011;2290;48.674;9.018;2023-11-18T01:41:16;2.03;;;1.80;;
4555;SDS011;2290;48.674;9.018;2023-11-18T01:43:45;1.93;;;1.77;;
4555;SDS011;2290;48.674;9.018;2023-11-18T01:46:12;2.30;;;2.10;;
4555;SDS011;2290;48.674;9.018;2023-11-18T01:48:38;2.03;;;1.70;;
4555;SDS011;2290;48.674;9.018;2023-11-18T01:51:05;1.93;;;1.67;;
4555;SDS011;2290;48.674;9.018;2023-11-18T01:53:32;2.10;;;1.70;;
4555;SDS011;2290;48.674;9.018;2023-11-18T01:56:00;2.80;;;2.07;;
4555;SDS011;2290;48.674;9.018;2023-11-18T01:58:27;2.10;;;1.63;;
4555;SDS011;2290;48.674;9.018;2023-11-18T02:00:55;2.23;;;1.80;;
4555;SDS011;2290;48.674;9.018;2023-11-18T02:03:22;4.90;;;2.33;;
4555;SDS011;2290;48.674;9.018;2023-11-18T02:05:48;2.93;;;2.20;;
4555;SDS011;2290;48.674;9.018;2023-11-18T02:08:13;2.40;;;1.70;;
4555;SDS011;2290;48.674;9.018;2023-11-18T02:10:44;2.70;;;2.13;;
4555;SDS011;2290;48.674;9.018;2023-11-18T02:13:16;2.63;;;1.90;;
4555;SDS011;2290;48.674;9.018;2023-11-18T02:15:45;2.33;;;1.90;;
4555;SDS011;2290;48.674;9.018;2023-11-18T02:18:11;1.57;;;1.47;;
4555;SDS011;2290;48.674;9.018;2023-11-18T02:20:38;1.40;;;1.30;;
4555;SDS011;2290;48.674;9.018;2023-11-18T02:23:05;2.23;;;1.90;;
4555;SDS011;2290;48.674;9.018;2023-11-18T02:25:33;2.57;;;1.80;;
4555;SDS011;2290;48.674;9.018;2023-11-18T02:28:05;1.83;;;1.73;;
4555;SDS011;2290;48.674;9.018;2023-11-18T02:30:31;2.40;;;1.73;;
4555;SDS011;2290;48.674;9.018;2023-11-18T02:33:01;1.63;;;1.40;;
4555;SDS011;2290;48.674;9.018;2023-11-18T02:35:35;1.70;;;1.60;;
4555;SDS011;2290;48.674;9.018;2023-11-18T02:38:06;1.97;;;1.53;;
4555;SDS011;2290;48.674;9.018;2023-11-18T02:40:36;2.03;;;1.60;;
4555;SDS011;2290;48.674;9.018;2023-11-18T02:43:08;1.90;;;1.37;;
4555;SDS011;2290;48.674;9.018;2023-11-18T02:45:35;2.20;;;1.83;;
4555;SDS011;2290;48.674;9.018;2023-11-18T02:48:02;2.20;;;1.80;;
4555;SDS011;2290;48.674;9.018;2023-11-18T02:50:31;1.93;;;1.77;;
4555;SDS011;2290;48.674;9.018;2023-11-18T02:53:02;1.63;;;1.53;;
4555;SDS011;2290;48.674;9.018;2023-11-18T02:55:28;1.67;;;1.57;;
4555;SDS011;2290;48.674;9.018;2023-11-18T02:57:55;2.07;;;1.80;;
4555;SDS011;2290;48.674;9.018;2023-11-18T03:00:22;1.93;;;1.53;;
4555;SDS011;2290;48.674;9.018;2023-11-18T03:02:48;2.77;;;1.53;;
4555;SDS011;2290;48.674;9.018;2023-11-18T03:05:18;2.20;;;2.00;;
4555;SDS011;2290;48.674;9.018;2023-11-18T03:07:45;1.77;;;1.67;;
4555;SDS011;2290;48.674;9.018;2023-11-18T03:10:14;1.70;;;1.60;;
4555;SDS011;2290;48.674;9.018;2023-11-18T03:12:52;1.40;;;1.30;;
4555;SDS011;2290;48.674;9.018;2023-11-18T03:15:19;1.50;;;1.40;;
4555;SDS011;2290;48.674;9.018;2023-11-18T03:17:50;2.57;;;1.80;;
4555;SDS011;2290;48.674;9.018;2023-11-18T03:20:17;1.83;;;1.70;;
4555;SDS011;2290;48.674;9.018;2023-11-18T03:22:49;1.50;;;1.40;;
4555;SDS011;2290;48.674;9.018;2023-11-18T03:25:16;2.60;;;1.53;;
4555;SDS011;2290;48.674;9.018;2023-11-18T03:27:44;1.93;;;1.40;;
4555;SDS011;2290;48.674;9.018;2023-11-18T03:30:10;2.40;;;1.93;;
4555;SDS011;2290;48.674;9.018;2023-11-18T03:32:37;1.60;;;1.40;;
4555;SDS011;2290;48.674;9.018;2023-11-18T03:35:06;3.07;;;1.90;;
4555;SDS011;2290;48.674;9.018;2023-11-18T03:37:33;1.60;;;1.40;;
4555;SDS011;2290;48.674;9.018;2023-11-18T03:39:59;1.97;;;1.50;;
4555;SDS011;2290;48.674;9.018;2023-11-18T03:42:25;1.90;;;1.67;;
4555;SDS011;2290;48.674;9.018;2023-11-18T03:44:52;1.90;;;1.67;;
4555;SDS011;2290;48.674;9.018;2023-11-18T03:47:18;2.87;;;2.13;;
4555;SDS011;2290;48.674;9.018;2023-11-18T03:49:44;2.00;;;1.57;;
4555;SDS011;2290;48.674;9.018;2023-11-18T03:52:11;1.90;;;1.70;;
4555;SDS011;2290;48.674;9.018;2023-11-18T03:54:37;2.00;;;1.80;;
4555;SDS011;2290;48.674;9.018;2023-11-18T03:57:03;2.27;;;1.80;;
4555;SDS011;2290;48.674;9.018;2023-11-18T03:59:29;2.03;;;1.53;;
4555;SDS011;2290;48.674;9.018;2023-11-18T04:01:55;3.20;;;2.00;;
4555;SDS011;2290;48.674;9.018;2023-11-18T04:04:23;3.03;;;2.10;;
4555;SDS011;2290;48.674;9.018;2023-11-18T04:06:49;2.97;;;2.20;;
4555;SDS011;2290;48.674;9.018;2023-11-18T04:09:15;2.53;;;1.97;;
4555;SDS011;2290;48.674;9.018;2023-11-18T04:11:41;3.70;;;1.90;;
4555;SDS011;2290;48.674;9.018;2023-11-18T04:14:10;4.13;;;2.10;;
4555;SDS011;2290;48.674;9.018;2023-11-18T04:16:37;2.63;;;1.90;;
4555;SDS011;2290;48.674;9.018;2023-11-18T04:19:03;3.27;;;2.50;;
4555;SDS011;2290;48.674;9.018;2023-11-18T04:21:30;4.07;;;2.13;;
4555;SDS011;2290;48.674;9.018;2023-11-18T04:23:56;2.20;;;2.00;;
4555;SDS011;2290;48.674;9.018;2023-11-18T04:26:22;2.80;;;2.03;;
4555;SDS011;2290;48.674;9.018;2023-11-18T04:28:49;3.20;;;2.20;;
4555;SDS011;2290;48.674;9.018;2023-11-18T04:31:15;2.97;;;2.10;;
4555;SDS011;2290;48.674;9.018;2023-11-18T04:33:40;3.53;;;2.50;;
4555;SDS011;2290;48.674;9.018;2023-11-18T04:36:07;2.13;;;1.93;;
4555;SDS011;2290;48.674;9.018;2023-11-18T04:38:35;2.53;;;2.00;;
4555;SDS011;2290;48.674;9.018;2023-11-18T04:41:03;5.23;;;2.97;;
4555;SDS011;2290;48.674;9.018;2023-11-18T04:43:29;3.10;;;2.30;;
4555;SDS011;2290;48.674;9.018;2023-11-18T04:45:56;4.20;;;2.53;;
4555;SDS011;2290;48.674;9.018;2023-11-18T04:48:25;4.07;;;2.23;;
4555;SDS011;2290;48.674;9.018;2023-11-18T04:50:50;3.30;;;2.53;;
4555;SDS011;2290;48.674;9.018;2023-11-18T04:53:17;3.70;;;2.43;;
4555;SDS011;2290;48.674;9.018;2023-11-18T04:55:44;3.93;;;2.63;;
4555;SDS011;2290;48.674;9.018;2023-11-18T04:58:09;3.87;;;2.67;;
4555;SDS011;2290;48.674;9.018;2023-11-18T05:00:37;3.27;;;2.60;;
4555;SDS011;2290;48.674;9.018;2023-11-18T05:03:04;4.77;;;2.57;;
4555;SDS011;2290;48.674;9.018;2023-11-18T05:05:30;3.07;;;2.77;;
4555;SDS011;2290;48.674;9.018;2023-11-18T05:07:56;3.87;;;2.60;;
4555;SDS011;2290;48.674;9.018;2023-11-18T05:10:23;3.10;;;2.50;;
4555;SDS011;2290;48.674;9.018;2023-11-18T05:12:49;2.40;;;2.20;;
4555;SDS011;2290;48.674;9.018;2023-11-18T05:15:20;4.13;;;2.70;;
4555;SDS011;2290;48.674;9.018;2023-11-18T05:17:51;3.00;;;2.53;;
4555;SDS011;2290;48.674;9.018;2023-11-18T05:20:17;3.23;;;2.20;;
4555;SDS011;2290;48.674;9.018;2023-11-18T05:22:43;4.63;;;2.30;;
4555;SDS011;2290;48.674;9.018;2023-11-18T05:25:11;2.90;;;2.10;;
4555;SDS011;2290;48.674;9.018;2023-11-18T05:27:36;2.60;;;2.23;;
4555;SDS011;2290;48.674;9.018;2023-11-18T05:30:05;3.10;;;2.40;;
4555;SDS011;2290;48.674;9.018;2023-11-18T05:32:33;3.60;;;2.30;;
4555;SDS011;2290;48.674;9.018;2023-11-18T05:34:58;3.70;;;2.50;;
4555;SDS011;2290;48.674;9.018;2023-11-18T05:37:24;2.60;;;2.23;;
4555;SDS011;2290;48.674;9.018;2023-11-18T05:39:51;2.97;;;2.10;;
4555;SDS011;2290;48.674;9.018;2023-11-18T05:42:26;3.90;;;2.57;;
4555;SDS011;2290;48.674;9.018;2023-11-18T05:44:52;3.87;;;2.70;;
4555;SDS011;2290;48.674;9.018;2023-11-18T05:47:24;4.57;;;2.80;;
4555;SDS011;2290;48.674;9.018;2023-11-18T05:49:51;2.80;;;2.20;;
4555;SDS011;2290;48.674;9.018;2023-11-18T05:52:18;3.00;;;2.30;;
4555;SDS011;2290;48.674;9.018;2023-11-18T05:54:45;6.07;;;3.10;;
4555;SDS011;2290;48.674;9.018;2023-11-18T05:57:12;3.93;;;2.67;;
4555;SDS011;2290;48.674;9.018;2023-11-18T05:59:38;3.63;;;2.80;;
4555;SDS011;2290;48.674;9.018;2023-11-18T06:02:05;3.47;;;2.60;;
4555;SDS011;2290;48.674;9.018;2023-11-18T06:04:31;3.87;;;2.77;;
4555;SDS011;2290;48.674;9.018;2023-11-18T06:06:57;5.63;;;3.40;;
4555;SDS011;2290;48.674;9.018;2023-11-18T06:09:23;5.87;;;3.10;;
4555;SDS011;2290;48.674;9.018;2023-11-18T06:11:51;3.17;;;2.87;;
4555;SDS011;2290;48.674;9.018;2023-11-18T06:14:18;5.30;;;3.20;;
4555;SDS011;2290;48.674;9.018;2023-11-18T06:16:49;4.47;;;3.23;;
4555;SDS011;2290;48.674;9.018;2023-11-18T06:19:21;4.80;;;3.50;;
4555;SDS011;2290;48.674;9.018;2023-11-18T06:21:49;7.23;;;3.37;;
4555;SDS011;2290;48.674;9.018;2023-11-18T06:24:16;6.10;;;3.33;;
4555;SDS011;2290;48.674;9.018;2023-11-18T06:26:43;6.07;;;3.57;;
4555;SDS011;2290;48.674;9.018;2023-11-18T06:29:12;4.43;;;3.50;;
4555;SDS011;2290;48.674;9.018;2023-11-18T06:31:39;5.57;;;3.50;;
4555;SDS011;2290;48.674;9.018;2023-11-18T06:34:04;5.60;;;3.53;;
4555;SDS011;2290;48.674;9.018;2023-11-18T06:36:30;5.13;;;3.40;;
4555;SDS011;2290;48.674;9.018;2023-11-18T06:38:56;4.00;;;2.97;;
4555;SDS011;2290;48.674;9.018;2023-11-18T06:41:22;5.50;;;3.70;;
4555;SDS011;2290;48.674;9.018;2023-11-18T06:43:48;6.47;;;3.20;;
4555;SDS011;2290;48.674;9.018;2023-11-18T06:46:19;5.00;;;3.40;;
4555;SDS011;2290;48.674;9.018;2023-11-18T06:48:48;4.40;;;3.77;;
4555;SDS011;2290;48.674;9.018;2023-11-18T06:51:14;5.80;;;3.23;;
4555;SDS011;2290;48.674;9.018;2023-11-18T06:53:41;5.43;;;3.60;;
4555;SDS011;2290;48.674;9.018;2023-11-18T06:56:08;5.33;;;3.27;;
4555;SDS011;2290;48.674;9.018;2023-11-18T06:58:36;12.40;;;3.73;;
4555;SDS011;2290;48.674;9.018;2023-11-18T07:01:06;6.53;;;4.30;;
4555;SDS011;2290;48.674;9.018;2023-11-18T07:03:33;4.47;;;3.47;;
4555;SDS011;2290;48.674;9.018;2023-11-18T07:06:00;4.70;;;3.57;;
4555;SDS011;2290;48.674;9.018;2023-11-18T07:08:25;5.17;;;3.07;;
4555;SDS011;2290;48.674;9.018;2023-11-18T07:10:51;13.73;;;3.70;;
4555;SDS011;2290;48.674;9.018;2023-11-18T07:13:18;5.20;;;3.60;;
4555;SDS011;2290;48.674;9.018;2023-11-18T07:15:43;4.67;;;3.10;;
4555;SDS011;2290;48.674;9.018;2023-11-18T07:18:14;9.27;;;3.93;;
4555;SDS011;2290;48.674;9.018;2023-11-18T07:20:41;6.60;;;3.30;;
4555;SDS011;2290;48.674;9.018;2023-11-18T07:23:07;6.03;;;3.13;;
4555;SDS011;2290;48.674;9.018;2023-11-18T07:25:33;5.87;;;3.40;;
4555;SDS011;2290;48.674;9.018;2023-11-18T07:28:00;5.03;;;2.83;;
4555;SDS011;2290;48.674;9.018;2023-11-18T07:30:26;6.30;;;3.67;;
4555;SDS011;2290;48.674;9.018;2023-11-18T07:32:51;4.33;;;2.80;;
4555;SDS011;2290;48.674;9.018;2023-11-18T07:35:17;4.27;;;2.90;;
4555;SDS011;2290;48.674;9.018;2023-11-18T07:37:44;4.17;;;2.77;;
4555;SDS011;2290;48.674;9.018;2023-11-18T07:40:11;3.90;;;2.80;;
4555;SDS011;2290;48.674;9.018;2023-11-18T07:42:39;6.47;;;3.50;;
4555;SDS011;2290;48.674;9.018;2023-11-18T07:45:06;6.73;;;2.67;;
4555;SDS011;2290;48.674;9.018;2023-11-18T07:47:42;4.13;;;2.60;;
4555;SDS011;2290;48.674;9.018;2023-11-18T07:50:09;7.43;;;3.93;;
4555;SDS011;2290;48.674;9.018;2023-11-18T07:52:38;2.93;;;2.47;;
4555;SDS011;2290;48.674;9.018;2023-11-18T07:55:08;3.27;;;2.60;;
4555;SDS011;2290;48.674;9.018;2023-11-18T07:57:37;3.40;;;3.03;;
4555;SDS011;2290;48.674;9.018;2023-11-18T08:00:03;3.37;;;2.90;;
4555;SDS011;2290;48.674;9.018;2023-11-18T08:02:34;3.80;;;2.60;;
4555;SDS011;2290;48.674;9.018;2023-11-18T08:05:02;2.80;;;2.20;;
4555;SDS011;2290;48.674;9.018;2023-11-18T08:07:32;4.30;;;2.43;;
4555;SDS011;2290;48.674;9.018;2023-11-18T08:10:00;2.33;;;2.03;;
4555;SDS011;2290;48.674;9.018;2023-11-18T08:12:31;4.33;;;2.10;;
4555;SDS011;2290;48.674;9.018;2023-11-18T08:14:59;2.43;;;2.23;;
4555;SDS011;2290;48.674;9.018;2023-11-18T08:17:25;2.37;;;1.90;;
4555;SDS011;2290;48.674;9.018;2023-11-18T08:19:52;2.97;;;2.13;;
4555;SDS011;2290;48.674;9.018;2023-11-18T08:22:19;2.50;;;1.90;;
4555;SDS011;2290;48.674;9.018;2023-11-18T08:24:48;2.80;;;2.10;;
4555;SDS011;2290;48.674;9.018;2023-11-18T08:27:14;1.77;;;1.50;;
4555;SDS011;2290;48.674;9.018;2023-11-18T08:29:40;2.13;;;1.70;;
4555;SDS011;2290;48.674;9.018;2023-11-18T08:32:08;1.93;;;1.70;;
4555;SDS011;2290;48.674;9.018;2023-11-18T08:34:36;2.30;;;1.77;;
4555;SDS011;2290;48.674;9.018;2023-11-18T08:37:04;2.13;;;1.70;;
4555;SDS011;2290;48.674;9.018;2023-11-18T08:39:29;2.07;;;1.87;;
4555;SDS011;2290;48.674;9.018;2023-11-18T08:41:55;2.13;;;1.80;;
4555;SDS011;2290;48.674;9.018;2023-11-18T08:44:21;2.83;;;1.70;;
4555;SDS011;2290;48.674;9.018;2023-11-18T08:46:47;2.83;;;1.80;;
4555;SDS011;2290;48.674;9.018;2023-11-18T08:49:13;1.97;;;1.73;;
4555;SDS011;2290;48.674;9.018;2023-11-18T08:51:41;2.63;;;1.40;;
4555;SDS011;2290;48.674;9.018;2023-11-18T08:54:08;2.93;;;1.60;;
4555;SDS011;2290;48.674;9.018;2023-11-18T08:56:49;2.97;;;1.80;;
4555;SDS011;2290;48.674;9.018;2023-11-18T08:59:19;3.13;;;1.87;;
4555;SDS011;2290;48.674;9.018;2023-11-18T09:01:52;3.07;;;1.60;;
4555;SDS011;2290;48.674;9.018;2023-11-18T09:04:27;1.50;;;1.40;;
4555;SDS011;2290;48.674;9.018;2023-11-18T09:06:53;1.90;;;1.50;;
4555;SDS011;2290;48.674;9.018;2023-11-18T09:09:22;2.40;;;1.67;;
4555;SDS011;2290;48.674;9.018;2023-11-18T09:11:56;2.17;;;1.40;;
4555;SDS011;2290;48.674;9.018;2023-11-18T09:14:23;4.33;;;1.60;;
4555;SDS011;2290;48.674;9.018;2023-11-18T09:16:51;1.87;;;1.40;;
4555;SDS011;2290;48.674;9.018;2023-11-18T09:19:17;3.37;;;1.63;;
4555;SDS011;2290;48.674;9.018;2023-11-18T09:21:46;1.40;;;1.30;;
4555;SDS011;2290;48.674;9.018;2023-11-18T09:24:14;1.60;;;1.50;;
4555;SDS011;2290;48.674;9.018;2023-11-18T09:26:45;1.50;;;1.40;;
4555;SDS011;2290;48.674;9.018;2023-11-18T09:29:18;2.80;;;1.30;;
4555;SDS011;2290;48.674;9.018;2023-11-18T09:31:47;4.10;;;1.60;;
4555;SDS011;2290;48.674;9.018;2023-11-18T09:34:15;1.67;;;1.50;;
4555;SDS011;2290;48.674;9.018;2023-11-18T09:36:58;5.70;;;1.57;;
4555;SDS011;2290;48.674;9.018;2023-11-18T09:39:24;1.90;;;1.50;;
4555;SDS011;2290;48.674;9.018;2023-11-18T09:42:02;2.90;;;1.30;;
4555;SDS011;2290;48.674;9.018;2023-11-18T09:44:35;1.40;;;1.30;;
4555;SDS011;2290;48.674;9.018;2023-11-18T09:47:03;3.63;;;1.43;;
4555;SDS011;2290;48.674;9.018;2023-11-18T09:49:37;3.07;;;1.50;;
4555;SDS011;2290;48.674;9.018;2023-11-18T09:52:06;1.80;;;1.23;;
4555;SDS011;2290;48.674;9.018;2023-11-18T09:54:50;1.27;;;1.17;;
4555;SDS011;2290;48.674;9.018;2023-11-18T09:57:43;2.80;;;1.27;;
4555;SDS011;2290;48.674;9.018;2023-11-18T10:00:12;1.80;;;1.30;;
4555;SDS011;2290;48.674;9.018;2023-11-18T10:02:51;1.33;;;1.20;;
4555;SDS011;2290;48.674;9.018;2023-11-18T10:05:17;1.53;;;1.27;;
4555;SDS011;2290;48.674;9.018;2023-11-18T10:07:47;1.50;;;1.40;;
4555;SDS011;2290;48.674;9.018;2023-11-18T10:10:13;2.90;;;1.37;;
4555;SDS011;2290;48.674;9.018;2023-11-18T10:12:44;1.80;;;1.50;;
4555;SDS011;2290;48.674;9.018;2023-11-18T10:15:17;3.63;;;1.63;;
4555;SDS011;2290;48.674;9.018;2023-11-18T10:17:44;1.83;;;1.47;;
4555;SDS011;2290;48.674;9.018;2023-11-18T10:20:22;1.60;;;1.40;;
4555;SDS011;2290;48.674;9.018;2023-11-18T10:23:07;2.33;;;1.30;;
4555;SDS011;2290;48.674;9.018;2023-11-18T10:25:53;1.60;;;1.10;;
4555;SDS011;2290;48.674;9.018;2023-11-18T10:30:53;1.10;;;1.00;;
4555;SDS011;2290;48.674;9.018;2023-11-18T10:33:24;1.40;;;1.30;;
4555;SDS011;2290;48.674;9.018;2023-11-18T10:35:57;3.03;;;1.50;;
4555;SDS011;2290;48.674;9.018;2023-11-18T10:38:28;1.40;;;1.30;;
4555;SDS011;2290;48.674;9.018;2023-11-18T10:40:55;1.50;;;1.40;;
4555;SDS011;2290;48.674;9.018;2023-11-18T10:43:26;1.83;;;1.53;;
4555;SDS011;2290;48.674;9.018;2023-11-18T10:46:03;2.13;;;1.50;;
4555;SDS011;2290;48.674;9.018;2023-11-18T10:48:48;1.33;;;1.23;;
4555;SDS011;2290;48.674;9.018;2023-11-18T10:51:14;1.37;;;1.27;;
4555;SDS011;2290;48.674;9.018;2023-11-18T10:53:42;1.23;;;1.10;;
4555;SDS011;2290;48.674;9.018;2023-11-18T10:56:21;1.87;;;1.50;;
4555;SDS011;2290;48.674;9.018;2023-11-18T10:58:59;1.90;;;1.43;;
4555;SDS011;2290;48.674;9.018;2023-11-18T11:01:37;1.27;;;1.17;;
4555;SDS011;2290;48.674;9.018;2023-11-18T11:04:09;3.10;;;1.20;;
4555;SDS011;2290;48.674;9.018;2023-11-18T11:06:35;2.90;;;1.40;;
4555;SDS011;2290;48.674;9.018;2023-11-18T11:09:21;1.87;;;1.20;;
4555;SDS011;2290;48.674;9.018;2023-11-18T11:11:57;2.17;;;1.50;;
4555;SDS011;2290;48.674;9.018;2023-11-18T11:14:32;2.30;;;1.33;;
4555;SDS011;2290;48.674;9.018;2023-11-18T11:17:05;1.93;;;1.60;;
4555;SDS011;2290;48.674;9.018;2023-11-18T11:22:21;2.90;;;1.40;;
4555;SDS011;2290;48.674;9.018;2023-11-18T11:27:54;1.67;;;1.20;;
4555;SDS011;2290;48.674;9.018;2023-11-18T11:30:29;3.60;;;1.47;;
4555;SDS011;2290;48.674;9.018;2023-11-18T11:33:13;3.23;;;1.50;;
4555;SDS011;2290;48.674;9.018;2023-11-18T11:36:05;1.87;;;1.43;;
4555;SDS011;2290;48.674;9.018;2023-11-18T11:38:36;7.00;;;1.97;;
4555;SDS011;2290;48.674;9.018;2023-11-18T11:41:03;1.53;;;1.20;;
4555;SDS011;2290;48.674;9.018;2023-11-18T11:43:30;1.40;;;1.30;;
4555;SDS011;2290;48.674;9.018;2023-11-18T11:45:59;1.50;;;1.40;;
4555;SDS011;2290;48.674;9.018;2023-11-18T11:48:28;2.07;;;1.70;;
4555;SDS011;2290;48.674;9.018;2023-11-18T11:56:43;2.70;;;1.60;;
4555;SDS011;2290;48.674;9.018;2023-11-18T11:59:12;2.73;;;2.10;;
4555;SDS011;2290;48.674;9.018;2023-11-18T12:01:40;1.50;;;1.40;;
4555;SDS011;2290;48.674;9.018;2023-11-18T12:04:11;2.73;;;1.73;;
4555;SDS011;2290;48.674;9.018;2023-11-18T12:06:46;2.43;;;1.70;;
4555;SDS011;2290;48.674;9.018;2023-11-18T12:09:13;2.10;;;1.80;;
4555;SDS011;2290;48.674;9.018;2023-11-18T12:11:45;2.43;;;1.90;;
4555;SDS011;2290;48.674;9.018;2023-11-18T12:14:14;3.30;;;1.80;;
4555;SDS011;2290;48.674;9.018;2023-11-18T12:19:32;3.67;;;1.80;;
4555;SDS011;2290;48.674;9.018;2023-11-18T12:22:02;3.17;;;1.70;;
4555;SDS011;2290;48.674;9.018;2023-11-18T12:24:37;3.03;;;1.40;;
4555;SDS011;2290;48.674;9.018;2023-11-18T12:27:08;2.63;;;1.70;;
4555;SDS011;2290;48.674;9.018;2023-11-18T12:29:43;2.30;;;1.73;;
4555;SDS011;2290;48.674;9.018;2023-11-18T12:32:10;2.80;;;1.67;;
4555;SDS011;2290;48.674;9.018;2023-11-18T12:34:53;2.33;;;1.77;;
4555;SDS011;2290;48.674;9.018;2023-11-18T12:40:53;3.93;;;1.83;;
4555;SDS011;2290;48.674;9.018;2023-11-18T12:49:34;2.90;;;1.60;;
4555;SDS011;2290;48.674;9.018;2023-11-18T12:52:08;2.80;;;1.90;;
4555;SDS011;2290;48.674;9.018;2023-11-18T12:54:36;1.60;;;1.50;;
4555;SDS011;2290;48.674;9.018;2023-11-18T12:57:08;5.00;;;2.47;;
4555;SDS011;2290;48.674;9.018;2023-11-18T12:59:35;2.00;;;1.80;;
4555;SDS011;2290;48.674;9.018;2023-11-18T13:02:07;4.60;;;1.97;;
4555;SDS011;2290;48.674;9.018;2023-11-18T13:04:42;2.50;;;2.03;;
4555;SDS011;2290;48.674;9.018;2023-11-18T13:07:07;2.63;;;1.83;;
4555;SDS011;2290;48.674;9.018;2023-11-18T13:09:33;2.67;;;1.90;;
4555;SDS011;2290;48.674;9.018;2023-11-18T13:12:03;3.60;;;1.77;;
4555;SDS011;2290;48.674;9.018;2023-11-18T13:14:30;2.50;;;1.90;;
4555;SDS011;2290;48.674;9.018;2023-11-18T13:17:06;2.40;;;1.97;;
4555;SDS011;2290;48.674;9.018;2023-11-18T13:19:36;2.50;;;2.00;;
4555;SDS011;2290;48.674;9.018;2023-11-18T13:22:03;2.47;;;1.90;;
4555;SDS011;2290;48.674;9.018;2023-11-18T13:24:32;2.20;;;1.70;;
4555;SDS011;2290;48.674;9.018;2023-11-18T13:26:59;3.27;;;2.07;;
4555;SDS011;2290;48.674;9.018;2023-11-18T13:29:30;2.50;;;2.10;;
4555;SDS011;2290;48.674;9.018;2023-11-18T13:31:57;1.93;;;1.73;;
4555;SDS011;2290;48.674;9.018;2023-11-18T13:34:25;3.77;;;2.07;;
4555;SDS011;2290;48.674;9.018;2023-11-18T13:36:53;2.00;;;1.70;;
4555;SDS011;2290;48.674;9.018;2023-11-18T13:39:20;2.00;;;1.70;;
4555;SDS011;2290;48.674;9.018;2023-11-18T13:41:51;4.83;;;2.10;;
4555;SDS011;2290;48.674;9.018;2023-11-18T13:44:36;4.60;;;2.17;;
4555;SDS011;2290;48.674;9.018;2023-11-18T13:47:10;1.87;;;1.70;;
4555;SDS011;2290;48.674;9.018;2023-11-18T13:49:37;3.53;;;2.10;;
4555;SDS011;2290;48.674;9.018;2023-11-18T13:52:07;3.50;;;2.07;;
4555;SDS011;2290;48.674;9.018;2023-11-18T13:54:38;3.33;;;1.90;;
4555;SDS011;2290;48.674;9.018;2023-11-18T13:57:04;2.53;;;1.73;;
4555;SDS011;2290;48.674;9.018;2023-11-18T13:59:32;2.80;;;2.10;;
4555;SDS011;2290;48.674;9.018;2023-11-18T14:01:58;2.37;;;1.97;;
4555;SDS011;2290;48.674;9.018;2023-11-18T14:04:30;5.40;;;1.80;;
4555;SDS011;2290;48.674;9.018;2023-11-18T14:06:59;5.90;;;2.30;;
4555;SDS011;2290;48.674;9.018;2023-11-18T14:09:31;2.60;;;2.33;;
4555;SDS011;2290;48.674;9.018;2023-11-18T14:12:01;2.10;;;1.83;;
4555;SDS011;2290;48.674;9.018;2023-11-18T14:14:31;3.43;;;2.17;;
4555;SDS011;2290;48.674;9.018;2023-11-18T14:16:57;2.50;;;2.10;;
4555;SDS011;2290;48.674;9.018;2023-11-18T14:19:24;2.43;;;2.00;;
4555;SDS011;2290;48.674;9.018;2023-11-18T14:21:51;3.10;;;2.00;;
4555;SDS011;2290;48.674;9.018;2023-11-18T14:24:18;4.57;;;2.30;;
4555;SDS011;2290;48.674;9.018;2023-11-18T14:26:44;3.50;;;2.23;;
4555;SDS011;2290;48.674;9.018;2023-11-18T14:29:10;2.80;;;1.87;;
4555;SDS011;2290;48.674;9.018;2023-11-18T14:31:39;2.20;;;1.80;;
4555;SDS011;2290;48.674;9.018;2023-11-18T14:34:04;4.00;;;1.70;;
4555;SDS011;2290;48.674;9.018;2023-11-18T14:36:31;3.00;;;1.80;;
4555;SDS011;2290;48.674;9.018;2023-11-18T14:38:57;3.80;;;1.80;;
4555;SDS011;2290;48.674;9.018;2023-11-18T14:41:24;3.43;;;1.80;;
4555;SDS011;2290;48.674;9.018;2023-11-18T14:43:51;4.40;;;1.60;;
4555;SDS011;2290;48.674;9.018;2023-11-18T14:46:18;2.27;;;1.73;;
4555;SDS011;2290;48.674;9.018;2023-11-18T14:48:44;3.60;;;1.67;;
4555;SDS011;2290;48.674;9.018;2023-11-18T14:51:10;4.50;;;1.60;;
4555;SDS011;2290;48.674;9.018;2023-11-18T14:53:36;1.60;;;1.50;;
4555;SDS011;2290;48.674;9.018;2023-11-18T14:56:02;2.27;;;1.70;;
4555;SDS011;2290;48.674;9.018;2023-11-18T14:58:32;2.80;;;2.27;;
4555;SDS011;2290;48.674;9.018;2023-11-18T15:01:00;4.33;;;2.47;;
4555;SDS011;2290;48.674;9.018;2023-11-18T15:03:27;2.40;;;1.97;;
4555;SDS011;2290;48.674;9.018;2023-11-18T15:05:55;3.07;;;1.80;;
4555;SDS011;2290;48.674;9.018;2023-11-18T15:08:21;2.50;;;1.87;;
4555;SDS011;2290;48.674;9.018;2023-11-18T15:10:48;2.17;;;1.83;;
4555;SDS011;2290;48.674;9.018;2023-11-18T15:13:14;2.57;;;1.90;;
4555;SDS011;2290;48.674;9.018;2023-11-18T15:15:46;11.27;;;2.03;;
4555;SDS011;2290;48.674;9.018;2023-11-18T15:18:14;5.17;;;1.80;;
4555;SDS011;2290;48.674;9.018;2023-11-18T15:20:43;3.87;;;2.57;;
4555;SDS011;2290;48.674;9.018;2023-11-18T15:23:09;2.23;;;1.77;;
4555;SDS011;2290;48.674;9.018;2023-11-18T15:25:35;2.43;;;2.23;;
4555;SDS011;2290;48.674;9.018;2023-11-18T15:28:01;3.03;;;2.40;;
4555;SDS011;2290;48.674;9.018;2023-11-18T15:30:36;3.10;;;2.10;;
4555;SDS011;2290;48.674;9.018;2023-11-18T15:33:02;3.13;;;2.17;;
4555;SDS011;2290;48.674;9.018;2023-11-18T15:35:29;2.90;;;2.50;;
4555;SDS011;2290;48.674;9.018;2023-11-18T15:37:55;4.17;;;2.40;;
4555;SDS011;2290;48.674;9.018;2023-11-18T15:40:21;4.43;;;2.33;;
4555;SDS011;2290;48.674;9.018;2023-11-18T15:42:50;3.93;;;2.10;;
4555;SDS011;2290;48.674;9.018;2023-11-18T15:45:20;2.67;;;2.27;;
4555;SDS011;2290;48.674;9.018;2023-11-18T15:47:49;3.30;;;2.20;;
4555;SDS011;2290;48.674;9.018;2023-11-18T15:50:15;2.50;;;1.93;;